sensor_id;sensor_type;location;lat;lon;timestamp;P1;durP1;ratioP1;P2;durP2;ratioP2
11671;SDS011;5892;43.412;24.612;2022-10-16T00:01:50;7.93;;;6.90;;
11671;SDS011;5892;43.412;24.612;2022-10-16T00:04:17;8.87;;;6.73;;
11671;SDS011;5892;43.412;24.612;2022-10-16T00:06:44;8.07;;;7.27;;
11671;SDS011;5892;43.412;24.612;2022-10-16T00:09:11;10.27;;;6.90;;
11671;SDS011;5892;43.412;24.612;2022-10-16T00:11:38;7.43;;;6.63;;
11671;SDS011;5892;43.412;24.612;2022-10-16T00:14:07;8.40;;;6.90;;
11671;SDS011;5892;43.412;24.612;2022-10-16T00:16:37;9.07;;;6.70;;
11671;SDS011;5892;43.412;24.612;2022-10-16T00:19:04;8.67;;;7.37;;
11671;SDS011;5892;43.412;24.612;2022-10-16T00:21:32;10.53;;;7.10;;
11671;SDS011;5892;43.412;24.612;2022-10-16T00:24:00;9.27;;;6.83;;
11671;SDS011;5892;43.412;24.612;2022-10-16T00:26:29;7.83;;;7.03;;
11671;SDS011;5892;43.412;24.612;2022-10-16T00:28:57;14.27;;;7.40;;
11671;SDS011;5892;43.412;24.612;2022-10-16T00:31:24;9.23;;;6.73;;
11671;SDS011;5892;43.412;24.612;2022-10-16T00:33:53;10.40;;;7.17;;
11671;SDS011;5892;43.412;24.612;2022-10-16T00:36:21;9.27;;;7.67;;
11671;SDS011;5892;43.412;24.612;2022-10-16T00:38:51;8.20;;;7.33;;
11671;SDS011;5892;43.412;24.612;2022-10-16T00:41:20;9.07;;;7.47;;
11671;SDS011;5892;43.412;24.612;2022-10-16T00:43:48;11.60;;;7.60;;
11671;SDS011;5892;43.412;24.612;2022-10-16T00:46:17;8.23;;;7.43;;
11671;SDS011;5892;43.412;24.612;2022-10-16T00:48:47;8.57;;;7.73;;
11671;SDS011;5892;43.412;24.612;2022-10-16T00:51:21;10.50;;;7.57;;
11671;SDS011;5892;43.412;24.612;2022-10-16T00:53:51;9.07;;;8.17;;
11671;SDS011;5892;43.412;24.612;2022-10-16T00:56:19;11.07;;;8.00;;
11671;SDS011;5892;43.412;24.612;2022-10-16T00:58:45;9.97;;;8.17;;
11671;SDS011;5892;43.412;24.612;2022-10-16T01:01:12;10.90;;;8.53;;
11671;SDS011;5892;43.412;24.612;2022-10-16T01:03:39;10.10;;;8.13;;
11671;SDS011;5892;43.412;24.612;2022-10-16T01:06:12;11.03;;;8.27;;
11671;SDS011;5892;43.412;24.612;2022-10-16T01:08:55;9.47;;;8.20;;
11671;SDS011;5892;43.412;24.612;2022-10-16T01:11:32;9.87;;;8.37;;
11671;SDS011;5892;43.412;24.612;2022-10-16T01:14:06;9.53;;;8.50;;
11671;SDS011;5892;43.412;24.612;2022-10-16T01:16:40;9.57;;;8.10;;
11671;SDS011;5892;43.412;24.612;2022-10-16T01:19:14;10.30;;;8.30;;
11671;SDS011;5892;43.412;24.612;2022-10-16T01:21:47;10.70;;;8.13;;
11671;SDS011;5892;43.412;24.612;2022-10-16T01:24:25;10.63;;;8.93;;
11671;SDS011;5892;43.412;24.612;2022-10-16T01:27:04;10.40;;;9.30;;
11671;SDS011;5892;43.412;24.612;2022-10-16T01:29:34;11.93;;;9.23;;
11671;SDS011;5892;43.412;24.612;2022-10-16T01:32:08;9.30;;;8.30;;
11671;SDS011;5892;43.412;24.612;2022-10-16T01:34:38;9.70;;;8.70;;
11671;SDS011;5892;43.412;24.612;2022-10-16T01:37:14;9.33;;;8.37;;
11671;SDS011;5892;43.412;24.612;2022-10-16T01:39:45;10.23;;;8.33;;
11671;SDS011;5892;43.412;24.612;2022-10-16T01:42:18;13.60;;;8.80;;
11671;SDS011;5892;43.412;24.612;2022-10-16T01:44:50;12.03;;;8.40;;
11671;SDS011;5892;43.412;24.612;2022-10-16T01:47:19;8.97;;;7.70;;
11671;SDS011;5892;43.412;24.612;2022-10-16T01:49:49;10.40;;;7.50;;
11671;SDS011;5892;43.412;24.612;2022-10-16T01:52:19;10.93;;;7.53;;
11671;SDS011;5892;43.412;24.612;2022-10-16T01:54:49;7.87;;;7.03;;
11671;SDS011;5892;43.412;24.612;2022-10-16T01:57:21;8.13;;;7.23;;
11671;SDS011;5892;43.412;24.612;2022-10-16T01:59:51;8.27;;;7.33;;
11671;SDS011;5892;43.412;24.612;2022-10-16T02:02:22;8.73;;;6.93;;
11671;SDS011;5892;43.412;24.612;2022-10-16T02:04:56;7.63;;;6.87;;
11671;SDS011;5892;43.412;24.612;2022-10-16T02:07:25;12.20;;;7.60;;
11671;SDS011;5892;43.412;24.612;2022-10-16T02:09:55;9.23;;;7.90;;
11671;SDS011;5892;43.412;24.612;2022-10-16T02:12:25;8.77;;;7.50;;
11671;SDS011;5892;43.412;24.612;2022-10-16T02:14:56;9.47;;;7.53;;
11671;SDS011;5892;43.412;24.612;2022-10-16T02:17:23;10.07;;;8.40;;
11671;SDS011;5892;43.412;24.612;2022-10-16T02:19:57;9.53;;;7.67;;
11671;SDS011;5892;43.412;24.612;2022-10-16T02:22:27;9.77;;;7.53;;
11671;SDS011;5892;43.412;24.612;2022-10-16T02:24:58;8.53;;;7.33;;
11671;SDS011;5892;43.412;24.612;2022-10-16T02:27:33;9.50;;;7.73;;
11671;SDS011;5892;43.412;24.612;2022-10-16T02:30:13;9.97;;;7.70;;
11671;SDS011;5892;43.412;24.612;2022-10-16T02:32:48;8.87;;;7.40;;
11671;SDS011;5892;43.412;24.612;2022-10-16T02:35:17;9.37;;;7.53;;
11671;SDS011;5892;43.412;24.612;2022-10-16T02:37:49;10.30;;;7.50;;
11671;SDS011;5892;43.412;24.612;2022-10-16T02:40:17;9.73;;;7.23;;
11671;SDS011;5892;43.412;24.612;2022-10-16T02:42:49;8.10;;;7.07;;
11671;SDS011;5892;43.412;24.612;2022-10-16T02:45:26;8.47;;;7.40;;
11671;SDS011;5892;43.412;24.612;2022-10-16T02:47:57;9.13;;;7.80;;
11671;SDS011;5892;43.412;24.612;2022-10-16T02:50:24;10.10;;;7.77;;
11671;SDS011;5892;43.412;24.612;2022-10-16T02:53:00;8.70;;;7.80;;
11671;SDS011;5892;43.412;24.612;2022-10-16T02:55:27;9.10;;;7.43;;
11671;SDS011;5892;43.412;24.612;2022-10-16T02:57:55;9.13;;;7.63;;
11671;SDS011;5892;43.412;24.612;2022-10-16T03:00:22;11.87;;;8.00;;
11671;SDS011;5892;43.412;24.612;2022-10-16T03:02:52;12.03;;;8.63;;
11671;SDS011;5892;43.412;24.612;2022-10-16T03:05:19;8.90;;;8.00;;
11671;SDS011;5892;43.412;24.612;2022-10-16T03:07:46;9.87;;;8.10;;
11671;SDS011;5892;43.412;24.612;2022-10-16T03:10:15;11.37;;;9.83;;
11671;SDS011;5892;43.412;24.612;2022-10-16T03:12:42;24.20;;;21.80;;
11671;SDS011;5892;43.412;24.612;2022-10-16T03:15:14;24.03;;;21.33;;
11671;SDS011;5892;43.412;24.612;2022-10-16T03:17:41;18.90;;;17.00;;
11671;SDS011;5892;43.412;24.612;2022-10-16T03:20:10;14.57;;;11.33;;
11671;SDS011;5892;43.412;24.612;2022-10-16T03:22:37;10.20;;;9.20;;
11671;SDS011;5892;43.412;24.612;2022-10-16T03:25:06;9.73;;;8.73;;
11671;SDS011;5892;43.412;24.612;2022-10-16T03:27:34;9.70;;;8.40;;
11671;SDS011;5892;43.412;24.612;2022-10-16T03:30:03;9.77;;;8.20;;
11671;SDS011;5892;43.412;24.612;2022-10-16T03:32:42;14.50;;;11.57;;
11671;SDS011;5892;43.412;24.612;2022-10-16T03:35:14;12.57;;;11.30;;
11671;SDS011;5892;43.412;24.612;2022-10-16T03:37:41;12.33;;;11.03;;
11671;SDS011;5892;43.412;24.612;2022-10-16T03:40:13;12.20;;;10.30;;
11671;SDS011;5892;43.412;24.612;2022-10-16T03:42:42;9.90;;;8.77;;
11671;SDS011;5892;43.412;24.612;2022-10-16T03:45:10;9.07;;;8.17;;
11671;SDS011;5892;43.412;24.612;2022-10-16T03:47:37;13.80;;;8.67;;
11671;SDS011;5892;43.412;24.612;2022-10-16T03:50:21;8.77;;;7.97;;
11671;SDS011;5892;43.412;24.612;2022-10-16T03:52:53;9.43;;;7.73;;
11671;SDS011;5892;43.412;24.612;2022-10-16T03:55:21;10.50;;;7.67;;
11671;SDS011;5892;43.412;24.612;2022-10-16T03:58:02;9.60;;;7.47;;
11671;SDS011;5892;43.412;24.612;2022-10-16T04:00:30;9.50;;;7.40;;
11671;SDS011;5892;43.412;24.612;2022-10-16T04:03:22;10.17;;;7.17;;
11671;SDS011;5892;43.412;24.612;2022-10-16T04:05:54;9.73;;;6.83;;
11671;SDS011;5892;43.412;24.612;2022-10-16T04:08:34;9.90;;;8.00;;
11671;SDS011;5892;43.412;24.612;2022-10-16T04:11:02;8.97;;;7.60;;
11671;SDS011;5892;43.412;24.612;2022-10-16T04:13:33;10.43;;;7.70;;
11671;SDS011;5892;43.412;24.612;2022-10-16T04:16:04;8.43;;;7.50;;
11671;SDS011;5892;43.412;24.612;2022-10-16T04:18:37;8.80;;;7.70;;
11671;SDS011;5892;43.412;24.612;2022-10-16T04:21:04;8.97;;;8.00;;
11671;SDS011;5892;43.412;24.612;2022-10-16T04:23:34;12.00;;;8.47;;
11671;SDS011;5892;43.412;24.612;2022-10-16T04:26:05;9.57;;;8.40;;
11671;SDS011;5892;43.412;24.612;2022-10-16T04:28:40;11.30;;;8.30;;
11671;SDS011;5892;43.412;24.612;2022-10-16T04:31:07;10.23;;;8.17;;
11671;SDS011;5892;43.412;24.612;2022-10-16T04:33:35;11.60;;;8.73;;
11671;SDS011;5892;43.412;24.612;2022-10-16T04:36:03;14.37;;;8.67;;
11671;SDS011;5892;43.412;24.612;2022-10-16T04:38:30;10.27;;;9.10;;
11671;SDS011;5892;43.412;24.612;2022-10-16T04:41:00;11.70;;;9.43;;
11671;SDS011;5892;43.412;24.612;2022-10-16T04:43:35;11.33;;;9.53;;
11671;SDS011;5892;43.412;24.612;2022-10-16T04:46:05;11.20;;;9.17;;
11671;SDS011;5892;43.412;24.612;2022-10-16T04:48:31;10.47;;;9.47;;
11671;SDS011;5892;43.412;24.612;2022-10-16T04:51:03;13.03;;;8.87;;
11671;SDS011;5892;43.412;24.612;2022-10-16T04:53:32;12.60;;;9.77;;
11671;SDS011;5892;43.412;24.612;2022-10-16T04:55:59;11.63;;;8.37;;
11671;SDS011;5892;43.412;24.612;2022-10-16T04:58:26;13.83;;;9.53;;
11671;SDS011;5892;43.412;24.612;2022-10-16T05:00:56;10.73;;;8.90;;
11671;SDS011;5892;43.412;24.612;2022-10-16T05:03:25;12.33;;;9.80;;
11671;SDS011;5892;43.412;24.612;2022-10-16T05:05:53;12.97;;;9.77;;
11671;SDS011;5892;43.412;24.612;2022-10-16T05:08:27;18.40;;;11.40;;
11671;SDS011;5892;43.412;24.612;2022-10-16T05:10:54;16.23;;;13.83;;
11671;SDS011;5892;43.412;24.612;2022-10-16T05:13:25;13.83;;;11.47;;
11671;SDS011;5892;43.412;24.612;2022-10-16T05:15:51;10.70;;;9.23;;
11671;SDS011;5892;43.412;24.612;2022-10-16T05:18:32;11.80;;;9.70;;
11671;SDS011;5892;43.412;24.612;2022-10-16T05:21:01;12.63;;;8.90;;
11671;SDS011;5892;43.412;24.612;2022-10-16T05:23:36;11.10;;;8.87;;
11671;SDS011;5892;43.412;24.612;2022-10-16T05:26:06;11.77;;;8.33;;
11671;SDS011;5892;43.412;24.612;2022-10-16T05:28:32;11.37;;;8.40;;
11671;SDS011;5892;43.412;24.612;2022-10-16T05:31:03;12.97;;;8.60;;
11671;SDS011;5892;43.412;24.612;2022-10-16T05:33:33;11.00;;;8.33;;
11671;SDS011;5892;43.412;24.612;2022-10-16T05:36:01;10.77;;;8.40;;
11671;SDS011;5892;43.412;24.612;2022-10-16T05:38:28;12.30;;;8.90;;
11671;SDS011;5892;43.412;24.612;2022-10-16T05:40:56;14.47;;;9.47;;
11671;SDS011;5892;43.412;24.612;2022-10-16T05:43:23;10.57;;;9.40;;
11671;SDS011;5892;43.412;24.612;2022-10-16T05:46:00;11.17;;;9.53;;
11671;SDS011;5892;43.412;24.612;2022-10-16T05:48:27;16.87;;;9.70;;
11671;SDS011;5892;43.412;24.612;2022-10-16T05:51:01;11.43;;;10.23;;
11671;SDS011;5892;43.412;24.612;2022-10-16T05:53:32;11.77;;;9.87;;
11671;SDS011;5892;43.412;24.612;2022-10-16T05:56:02;13.03;;;10.00;;
11671;SDS011;5892;43.412;24.612;2022-10-16T05:58:30;13.00;;;9.10;;
11671;SDS011;5892;43.412;24.612;2022-10-16T06:00:58;11.10;;;8.90;;
11671;SDS011;5892;43.412;24.612;2022-10-16T06:03:26;10.23;;;9.20;;
11671;SDS011;5892;43.412;24.612;2022-10-16T06:05:54;14.80;;;10.23;;
11671;SDS011;5892;43.412;24.612;2022-10-16T06:08:28;11.70;;;9.50;;
11671;SDS011;5892;43.412;24.612;2022-10-16T06:11:05;12.60;;;10.70;;
11671;SDS011;5892;43.412;24.612;2022-10-16T06:13:36;13.43;;;11.27;;
11671;SDS011;5892;43.412;24.612;2022-10-16T06:16:13;13.87;;;11.47;;
11671;SDS011;5892;43.412;24.612;2022-10-16T06:18:43;14.10;;;11.23;;
11671;SDS011;5892;43.412;24.612;2022-10-16T06:21:13;15.07;;;12.07;;
11671;SDS011;5892;43.412;24.612;2022-10-16T06:23:43;18.73;;;12.80;;
11671;SDS011;5892;43.412;24.612;2022-10-16T06:26:16;16.77;;;12.20;;
11671;SDS011;5892;43.412;24.612;2022-10-16T06:28:44;14.13;;;12.13;;
11671;SDS011;5892;43.412;24.612;2022-10-16T06:31:13;15.77;;;12.37;;
11671;SDS011;5892;43.412;24.612;2022-10-16T06:33:43;16.97;;;12.57;;
11671;SDS011;5892;43.412;24.612;2022-10-16T06:36:12;16.30;;;12.13;;
11671;SDS011;5892;43.412;24.612;2022-10-16T06:38:42;18.07;;;12.67;;
11671;SDS011;5892;43.412;24.612;2022-10-16T06:41:26;15.17;;;13.30;;
11671;SDS011;5892;43.412;24.612;2022-10-16T06:43:53;16.57;;;13.17;;
11671;SDS011;5892;43.412;24.612;2022-10-16T06:46:23;16.00;;;13.03;;
11671;SDS011;5892;43.412;24.612;2022-10-16T06:48:50;14.17;;;12.17;;
11671;SDS011;5892;43.412;24.612;2022-10-16T06:51:22;13.83;;;11.43;;
11671;SDS011;5892;43.412;24.612;2022-10-16T06:53:53;14.87;;;11.97;;
11671;SDS011;5892;43.412;24.612;2022-10-16T06:56:27;17.23;;;11.67;;
11671;SDS011;5892;43.412;24.612;2022-10-16T06:58:54;15.70;;;12.77;;
11671;SDS011;5892;43.412;24.612;2022-10-16T07:01:22;13.80;;;12.40;;
11671;SDS011;5892;43.412;24.612;2022-10-16T07:03:50;14.10;;;11.70;;
11671;SDS011;5892;43.412;24.612;2022-10-16T07:06:18;13.07;;;11.73;;
11671;SDS011;5892;43.412;24.612;2022-10-16T07:08:46;19.07;;;12.33;;
11671;SDS011;5892;43.412;24.612;2022-10-16T07:11:14;14.47;;;11.60;;
11671;SDS011;5892;43.412;24.612;2022-10-16T07:13:44;15.17;;;12.80;;
11671;SDS011;5892;43.412;24.612;2022-10-16T07:16:12;14.07;;;12.50;;
11671;SDS011;5892;43.412;24.612;2022-10-16T07:18:40;16.07;;;13.10;;
11671;SDS011;5892;43.412;24.612;2022-10-16T07:21:11;13.80;;;12.13;;
11671;SDS011;5892;43.412;24.612;2022-10-16T07:23:39;12.93;;;11.57;;
11671;SDS011;5892;43.412;24.612;2022-10-16T07:26:07;15.33;;;11.87;;
11671;SDS011;5892;43.412;24.612;2022-10-16T07:28:34;14.77;;;11.30;;
11671;SDS011;5892;43.412;24.612;2022-10-16T07:31:05;13.67;;;10.90;;
11671;SDS011;5892;43.412;24.612;2022-10-16T07:33:33;15.73;;;11.47;;
11671;SDS011;5892;43.412;24.612;2022-10-16T07:36:01;12.23;;;10.87;;
11671;SDS011;5892;43.412;24.612;2022-10-16T07:38:27;11.63;;;10.43;;
11671;SDS011;5892;43.412;24.612;2022-10-16T07:40:58;12.97;;;10.70;;
11671;SDS011;5892;43.412;24.612;2022-10-16T07:43:25;16.40;;;11.77;;
11671;SDS011;5892;43.412;24.612;2022-10-16T07:45:53;16.30;;;12.20;;
11671;SDS011;5892;43.412;24.612;2022-10-16T07:48:23;16.83;;;12.97;;
11671;SDS011;5892;43.412;24.612;2022-10-16T07:50:52;18.93;;;13.10;;
11671;SDS011;5892;43.412;24.612;2022-10-16T07:53:23;20.67;;;12.73;;
11671;SDS011;5892;43.412;24.612;2022-10-16T07:55:50;14.67;;;10.20;;
11671;SDS011;5892;43.412;24.612;2022-10-16T07:58:17;15.20;;;9.73;;
11671;SDS011;5892;43.412;24.612;2022-10-16T08:00:44;13.83;;;9.50;;
11671;SDS011;5892;43.412;24.612;2022-10-16T08:03:11;14.10;;;10.67;;
11671;SDS011;5892;43.412;24.612;2022-10-16T08:05:39;13.67;;;9.50;;
11671;SDS011;5892;43.412;24.612;2022-10-16T08:08:06;14.10;;;10.87;;
11671;SDS011;5892;43.412;24.612;2022-10-16T08:10:33;19.40;;;11.60;;
11671;SDS011;5892;43.412;24.612;2022-10-16T08:13:00;15.23;;;11.47;;
11671;SDS011;5892;43.412;24.612;2022-10-16T08:15:27;17.57;;;11.87;;
11671;SDS011;5892;43.412;24.612;2022-10-16T08:17:54;16.27;;;11.40;;
11671;SDS011;5892;43.412;24.612;2022-10-16T08:20:22;16.47;;;11.57;;
11671;SDS011;5892;43.412;24.612;2022-10-16T08:22:51;13.37;;;10.00;;
11671;SDS011;5892;43.412;24.612;2022-10-16T08:25:17;16.40;;;10.23;;
11671;SDS011;5892;43.412;24.612;2022-10-16T08:27:44;9.90;;;8.90;;
11671;SDS011;5892;43.412;24.612;2022-10-16T08:30:11;12.07;;;8.90;;
11671;SDS011;5892;43.412;24.612;2022-10-16T08:32:38;15.47;;;9.17;;
11671;SDS011;5892;43.412;24.612;2022-10-16T08:35:06;13.40;;;8.80;;
11671;SDS011;5892;43.412;24.612;2022-10-16T08:37:34;13.23;;;8.27;;
11671;SDS011;5892;43.412;24.612;2022-10-16T08:40:03;13.17;;;7.87;;
11671;SDS011;5892;43.412;24.612;2022-10-16T08:42:46;11.50;;;8.17;;
11671;SDS011;5892;43.412;24.612;2022-10-16T08:45:49;13.57;;;7.27;;
11671;SDS011;5892;43.412;24.612;2022-10-16T08:48:27;9.17;;;6.60;;
11671;SDS011;5892;43.412;24.612;2022-10-16T08:51:02;11.27;;;6.00;;
11671;SDS011;5892;43.412;24.612;2022-10-16T08:53:31;7.03;;;5.80;;
11671;SDS011;5892;43.412;24.612;2022-10-16T08:56:06;8.70;;;5.70;;
11671;SDS011;5892;43.412;24.612;2022-10-16T08:58:33;5.77;;;4.90;;
11671;SDS011;5892;43.412;24.612;2022-10-16T09:01:00;9.70;;;5.23;;
11671;SDS011;5892;43.412;24.612;2022-10-16T09:03:33;8.97;;;5.87;;
11671;SDS011;5892;43.412;24.612;2022-10-16T09:06:25;7.90;;;6.33;;
11671;SDS011;5892;43.412;24.612;2022-10-16T09:09:20;9.57;;;6.20;;
11671;SDS011;5892;43.412;24.612;2022-10-16T09:12:04;7.03;;;5.70;;
11671;SDS011;5892;43.412;24.612;2022-10-16T09:14:40;7.63;;;5.97;;
11671;SDS011;5892;43.412;24.612;2022-10-16T09:17:22;7.27;;;5.60;;
11671;SDS011;5892;43.412;24.612;2022-10-16T09:19:59;8.83;;;5.50;;
11671;SDS011;5892;43.412;24.612;2022-10-16T09:22:38;7.47;;;5.53;;
11671;SDS011;5892;43.412;24.612;2022-10-16T09:25:10;6.70;;;5.50;;
11671;SDS011;5892;43.412;24.612;2022-10-16T09:27:40;7.70;;;5.60;;
11671;SDS011;5892;43.412;24.612;2022-10-16T09:30:11;12.60;;;5.20;;
11671;SDS011;5892;43.412;24.612;2022-10-16T09:32:39;8.30;;;5.30;;
11671;SDS011;5892;43.412;24.612;2022-10-16T09:35:11;6.57;;;5.07;;
11671;SDS011;5892;43.412;24.612;2022-10-16T09:37:41;8.03;;;5.30;;
11671;SDS011;5892;43.412;24.612;2022-10-16T09:40:11;6.00;;;5.10;;
11671;SDS011;5892;43.412;24.612;2022-10-16T09:42:40;7.47;;;5.20;;
11671;SDS011;5892;43.412;24.612;2022-10-16T09:45:19;6.47;;;5.17;;
11671;SDS011;5892;43.412;24.612;2022-10-16T09:47:47;7.33;;;5.50;;
11671;SDS011;5892;43.412;24.612;2022-10-16T09:50:20;8.00;;;6.00;;
11671;SDS011;5892;43.412;24.612;2022-10-16T09:52:50;7.87;;;5.63;;
11671;SDS011;5892;43.412;24.612;2022-10-16T09:55:28;8.37;;;5.77;;
11671;SDS011;5892;43.412;24.612;2022-10-16T09:57:57;8.60;;;5.97;;
11671;SDS011;5892;43.412;24.612;2022-10-16T10:00:24;8.87;;;5.60;;
11671;SDS011;5892;43.412;24.612;2022-10-16T10:02:51;6.57;;;5.60;;
11671;SDS011;5892;43.412;24.612;2022-10-16T10:05:20;9.77;;;5.97;;
11671;SDS011;5892;43.412;24.612;2022-10-16T10:07:53;8.30;;;5.83;;
11671;SDS011;5892;43.412;24.612;2022-10-16T10:10:22;7.53;;;5.50;;
11671;SDS011;5892;43.412;24.612;2022-10-16T10:12:51;7.77;;;5.73;;
11671;SDS011;5892;43.412;24.612;2022-10-16T10:15:20;9.30;;;5.80;;
11671;SDS011;5892;43.412;24.612;2022-10-16T10:17:49;7.93;;;5.73;;
11671;SDS011;5892;43.412;24.612;2022-10-16T10:20:24;9.13;;;5.97;;
11671;SDS011;5892;43.412;24.612;2022-10-16T10:22:52;10.00;;;6.10;;
11671;SDS011;5892;43.412;24.612;2022-10-16T10:25:26;7.67;;;5.50;;
11671;SDS011;5892;43.412;24.612;2022-10-16T10:28:18;8.80;;;5.93;;
11671;SDS011;5892;43.412;24.612;2022-10-16T10:30:57;6.97;;;6.13;;
11671;SDS011;5892;43.412;24.612;2022-10-16T10:33:31;9.10;;;6.00;;
11671;SDS011;5892;43.412;24.612;2022-10-16T10:36:09;8.50;;;5.30;;
11671;SDS011;5892;43.412;24.612;2022-10-16T10:38:45;9.83;;;5.43;;
11671;SDS011;5892;43.412;24.612;2022-10-16T10:41:26;11.00;;;5.10;;
11671;SDS011;5892;43.412;24.612;2022-10-16T10:44:08;9.63;;;5.00;;
11671;SDS011;5892;43.412;24.612;2022-10-16T10:46:44;7.13;;;5.17;;
11671;SDS011;5892;43.412;24.612;2022-10-16T10:49:20;9.13;;;4.83;;
11671;SDS011;5892;43.412;24.612;2022-10-16T10:52:11;6.93;;;4.80;;
11671;SDS011;5892;43.412;24.612;2022-10-16T10:54:54;6.83;;;4.83;;
11671;SDS011;5892;43.412;24.612;2022-10-16T10:57:28;9.40;;;5.27;;
11671;SDS011;5892;43.412;24.612;2022-10-16T11:00:03;7.20;;;4.93;;
11671;SDS011;5892;43.412;24.612;2022-10-16T11:02:45;6.57;;;4.80;;
11671;SDS011;5892;43.412;24.612;2022-10-16T11:05:23;5.23;;;4.50;;
11671;SDS011;5892;43.412;24.612;2022-10-16T11:07:57;5.77;;;4.50;;
11671;SDS011;5892;43.412;24.612;2022-10-16T11:10:27;5.10;;;4.53;;
11671;SDS011;5892;43.412;24.612;2022-10-16T11:12:58;9.03;;;4.50;;
11671;SDS011;5892;43.412;24.612;2022-10-16T11:15:32;8.17;;;4.30;;
11671;SDS011;5892;43.412;24.612;2022-10-16T11:18:06;4.97;;;4.03;;
11671;SDS011;5892;43.412;24.612;2022-10-16T11:20:37;6.13;;;4.40;;
11671;SDS011;5892;43.412;24.612;2022-10-16T11:23:10;5.63;;;4.20;;
11671;SDS011;5892;43.412;24.612;2022-10-16T11:25:42;7.53;;;4.40;;
11671;SDS011;5892;43.412;24.612;2022-10-16T11:28:10;5.87;;;4.23;;
11671;SDS011;5892;43.412;24.612;2022-10-16T11:30:40;6.53;;;4.30;;
11671;SDS011;5892;43.412;24.612;2022-10-16T11:33:24;6.60;;;4.03;;
11671;SDS011;5892;43.412;24.612;2022-10-16T11:35:59;5.30;;;4.13;;
11671;SDS011;5892;43.412;24.612;2022-10-16T11:38:31;5.37;;;4.30;;
11671;SDS011;5892;43.412;24.612;2022-10-16T11:41:02;6.57;;;4.30;;
11671;SDS011;5892;43.412;24.612;2022-10-16T11:43:37;6.43;;;4.40;;
11671;SDS011;5892;43.412;24.612;2022-10-16T11:46:08;4.53;;;3.80;;
11671;SDS011;5892;43.412;24.612;2022-10-16T11:48:41;7.20;;;3.97;;
11671;SDS011;5892;43.412;24.612;2022-10-16T11:51:16;6.40;;;4.17;;
11671;SDS011;5892;43.412;24.612;2022-10-16T11:53:53;6.00;;;4.27;;
11671;SDS011;5892;43.412;24.612;2022-10-16T11:56:25;6.03;;;4.43;;
11671;SDS011;5892;43.412;24.612;2022-10-16T11:58:55;6.50;;;4.50;;
11671;SDS011;5892;43.412;24.612;2022-10-16T12:01:28;6.53;;;4.23;;
11671;SDS011;5892;43.412;24.612;2022-10-16T12:04:04;6.23;;;4.57;;
11671;SDS011;5892;43.412;24.612;2022-10-16T12:06:41;5.87;;;4.30;;
11671;SDS011;5892;43.412;24.612;2022-10-16T12:09:13;6.07;;;4.80;;
11671;SDS011;5892;43.412;24.612;2022-10-16T12:11:46;8.30;;;5.40;;
11671;SDS011;5892;43.412;24.612;2022-10-16T12:14:21;7.07;;;5.50;;
11671;SDS011;5892;43.412;24.612;2022-10-16T12:17:01;9.37;;;6.03;;
11671;SDS011;5892;43.412;24.612;2022-10-16T12:19:32;10.87;;;5.90;;
11671;SDS011;5892;43.412;24.612;2022-10-16T12:21:59;9.57;;;6.00;;
11671;SDS011;5892;43.412;24.612;2022-10-16T12:24:33;7.60;;;5.80;;
11671;SDS011;5892;43.412;24.612;2022-10-16T12:27:02;9.77;;;6.37;;
11671;SDS011;5892;43.412;24.612;2022-10-16T12:29:33;7.17;;;5.93;;
11671;SDS011;5892;43.412;24.612;2022-10-16T12:32:03;8.10;;;5.87;;
11671;SDS011;5892;43.412;24.612;2022-10-16T12:34:36;8.13;;;5.90;;
11671;SDS011;5892;43.412;24.612;2022-10-16T12:37:19;8.77;;;6.17;;
11671;SDS011;5892;43.412;24.612;2022-10-16T12:39:50;11.20;;;6.43;;
11671;SDS011;5892;43.412;24.612;2022-10-16T12:42:20;9.13;;;6.40;;
11671;SDS011;5892;43.412;24.612;2022-10-16T12:44:50;8.17;;;6.27;;
11671;SDS011;5892;43.412;24.612;2022-10-16T12:47:24;7.63;;;6.50;;
11671;SDS011;5892;43.412;24.612;2022-10-16T12:50:21;8.33;;;6.50;;
11671;SDS011;5892;43.412;24.612;2022-10-16T12:52:52;8.50;;;6.70;;
11671;SDS011;5892;43.412;24.612;2022-10-16T12:55:19;8.07;;;6.60;;
11671;SDS011;5892;43.412;24.612;2022-10-16T12:57:55;7.83;;;5.77;;
11671;SDS011;5892;43.412;24.612;2022-10-16T13:00:44;7.33;;;6.30;;
11671;SDS011;5892;43.412;24.612;2022-10-16T13:06:18;8.47;;;5.70;;
11671;SDS011;5892;43.412;24.612;2022-10-16T13:08:56;6.70;;;5.83;;
11671;SDS011;5892;43.412;24.612;2022-10-16T13:11:47;6.50;;;5.80;;
11671;SDS011;5892;43.412;24.612;2022-10-16T13:17:29;7.33;;;5.40;;
11671;SDS011;5892;43.412;24.612;2022-10-16T13:20:06;6.63;;;5.53;;
11671;SDS011;5892;43.412;24.612;2022-10-16T13:23:04;7.10;;;6.23;;
11671;SDS011;5892;43.412;24.612;2022-10-16T13:25:53;7.03;;;6.10;;
11671;SDS011;5892;43.412;24.612;2022-10-16T13:28:31;8.03;;;5.83;;
11671;SDS011;5892;43.412;24.612;2022-10-16T13:31:00;11.27;;;5.67;;
11671;SDS011;5892;43.412;24.612;2022-10-16T13:33:30;9.73;;;6.20;;
11671;SDS011;5892;43.412;24.612;2022-10-16T13:35:59;8.73;;;5.90;;
11671;SDS011;5892;43.412;24.612;2022-10-16T13:38:29;6.70;;;5.53;;
11671;SDS011;5892;43.412;24.612;2022-10-16T13:40:58;15.20;;;5.83;;
11671;SDS011;5892;43.412;24.612;2022-10-16T13:43:31;8.33;;;5.80;;
11671;SDS011;5892;43.412;24.612;2022-10-16T13:46:00;7.47;;;5.73;;
11671;SDS011;5892;43.412;24.612;2022-10-16T13:48:28;8.47;;;6.07;;
11671;SDS011;5892;43.412;24.612;2022-10-16T13:50:59;10.63;;;6.00;;
11671;SDS011;5892;43.412;24.612;2022-10-16T13:53:33;7.30;;;5.63;;
11671;SDS011;5892;43.412;24.612;2022-10-16T13:56:02;6.93;;;5.50;;
11671;SDS011;5892;43.412;24.612;2022-10-16T13:58:31;7.93;;;5.37;;
11671;SDS011;5892;43.412;24.612;2022-10-16T14:00:58;8.77;;;5.63;;
11671;SDS011;5892;43.412;24.612;2022-10-16T14:03:31;8.57;;;5.23;;
11671;SDS011;5892;43.412;24.612;2022-10-16T14:06:01;7.07;;;5.73;;
11671;SDS011;5892;43.412;24.612;2022-10-16T14:08:30;7.03;;;5.23;;
11671;SDS011;5892;43.412;24.612;2022-10-16T14:10:59;5.50;;;4.90;;
11671;SDS011;5892;43.412;24.612;2022-10-16T14:13:30;7.30;;;4.67;;
11671;SDS011;5892;43.412;24.612;2022-10-16T14:16:02;7.47;;;5.00;;
11671;SDS011;5892;43.412;24.612;2022-10-16T14:18:33;5.57;;;4.93;;
11671;SDS011;5892;43.412;24.612;2022-10-16T14:21:05;6.87;;;4.77;;
11671;SDS011;5892;43.412;24.612;2022-10-16T14:23:35;8.77;;;5.40;;
11671;SDS011;5892;43.412;24.612;2022-10-16T14:29:00;8.57;;;4.60;;
11671;SDS011;5892;43.412;24.612;2022-10-16T14:31:31;7.30;;;4.80;;
11671;SDS011;5892;43.412;24.612;2022-10-16T14:33:59;6.83;;;5.13;;
11671;SDS011;5892;43.412;24.612;2022-10-16T14:36:26;6.43;;;4.83;;
11671;SDS011;5892;43.412;24.612;2022-10-16T14:39:03;7.10;;;4.90;;
11671;SDS011;5892;43.412;24.612;2022-10-16T14:41:32;8.07;;;5.30;;
11671;SDS011;5892;43.412;24.612;2022-10-16T14:44:09;7.03;;;5.10;;
11671;SDS011;5892;43.412;24.612;2022-10-16T14:46:38;6.50;;;4.60;;
11671;SDS011;5892;43.412;24.612;2022-10-16T14:49:13;6.97;;;4.70;;
11671;SDS011;5892;43.412;24.612;2022-10-16T14:51:43;7.30;;;5.30;;
11671;SDS011;5892;43.412;24.612;2022-10-16T14:54:12;10.70;;;6.00;;
11671;SDS011;5892;43.412;24.612;2022-10-16T14:56:45;8.43;;;4.90;;
11671;SDS011;5892;43.412;24.612;2022-10-16T14:59:16;7.27;;;5.23;;
11671;SDS011;5892;43.412;24.612;2022-10-16T15:01:45;6.60;;;5.03;;
11671;SDS011;5892;43.412;24.612;2022-10-16T15:04:13;7.13;;;5.00;;
11671;SDS011;5892;43.412;24.612;2022-10-16T15:06:41;7.43;;;4.60;;
11671;SDS011;5892;43.412;24.612;2022-10-16T15:09:08;6.63;;;5.10;;
11671;SDS011;5892;43.412;24.612;2022-10-16T15:11:37;9.37;;;5.37;;
11671;SDS011;5892;43.412;24.612;2022-10-16T15:14:04;7.97;;;5.43;;
11671;SDS011;5892;43.412;24.612;2022-10-16T15:16:32;11.50;;;5.17;;